sensor_id;sensor_type;location;lat;lon;timestamp;temperature;humidity
47310;DHT22;33046;52.270;6.832;2023-05-18T00:01:22;10.40;83.30
47310;DHT22;33046;52.270;6.832;2023-05-18T00:03:29;10.30;83.00
47310;DHT22;33046;52.270;6.832;2023-05-18T00:05:36;10.40;83.50
47310;DHT22;33046;52.270;6.832;2023-05-18T00:07:43;10.30;83.70
47310;DHT22;33046;52.270;6.832;2023-05-18T00:09:52;10.30;83.50
47310;DHT22;33046;52.270;6.832;2023-05-18T00:11:59;10.20;83.60
47310;DHT22;33046;52.270;6.832;2023-05-18T00:14:06;10.20;82.80
47310;DHT22;33046;52.270;6.832;2023-05-18T00:16:13;10.20;82.60
47310;DHT22;33046;52.270;6.832;2023-05-18T00:18:20;10.10;82.80
47310;DHT22;33046;52.270;6.832;2023-05-18T00:20:27;10.10;83.40
47310;DHT22;33046;52.270;6.832;2023-05-18T00:22:34;10.10;84.00
47310;DHT22;33046;52.270;6.832;2023-05-18T00:24:40;10.10;84.70
47310;DHT22;33046;52.270;6.832;2023-05-18T00:26:48;10.00;85.00
47310;DHT22;33046;52.270;6.832;2023-05-18T00:28:56;10.00;85.00
47310;DHT22;33046;52.270;6.832;2023-05-18T00:31:04;10.00;85.30
47310;DHT22;33046;52.270;6.832;2023-05-18T00:33:11;9.90;85.30
47310;DHT22;33046;52.270;6.832;2023-05-18T00:35:18;9.90;85.50
47310;DHT22;33046;52.270;6.832;2023-05-18T00:37:25;9.80;86.30
47310;DHT22;33046;52.270;6.832;2023-05-18T00:39:32;9.80;85.80
47310;DHT22;33046;52.270;6.832;2023-05-18T00:41:39;9.80;85.50
47310;DHT22;33046;52.270;6.832;2023-05-18T00:43:47;9.80;84.70
47310;DHT22;33046;52.270;6.832;2023-05-18T00:45:54;9.70;84.50
47310;DHT22;33046;52.270;6.832;2023-05-18T00:48:01;9.70;84.90
47310;DHT22;33046;52.270;6.832;2023-05-18T00:50:08;9.70;85.50
47310;DHT22;33046;52.270;6.832;2023-05-18T00:52:16;9.60;86.10
47310;DHT22;33046;52.270;6.832;2023-05-18T00:54:23;9.60;85.90
47310;DHT22;33046;52.270;6.832;2023-05-18T00:56:30;9.60;86.10
47310;DHT22;33046;52.270;6.832;2023-05-18T00:58:37;9.60;86.40
47310;DHT22;33046;52.270;6.832;2023-05-18T01:00:46;9.60;86.90
47310;DHT22;33046;52.270;6.832;2023-05-18T01:02:53;9.50;87.20
47310;DHT22;33046;52.270;6.832;2023-05-18T01:05:00;9.50;87.50
47310;DHT22;33046;52.270;6.832;2023-05-18T01:07:07;9.50;87.40
47310;DHT22;33046;52.270;6.832;2023-05-18T01:09:14;9.50;87.60
47310;DHT22;33046;52.270;6.832;2023-05-18T01:11:25;9.50;87.50
47310;DHT22;33046;52.270;6.832;2023-05-18T01:13:41;9.40;87.60
47310;DHT22;33046;52.270;6.832;2023-05-18T01:15:53;9.40;87.70
47310;DHT22;33046;52.270;6.832;2023-05-18T01:18:10;9.40;87.80
47310;DHT22;33046;52.270;6.832;2023-05-18T01:20:23;9.30;88.10
47310;DHT22;33046;52.270;6.832;2023-05-18T01:22:54;9.30;88.40
47310;DHT22;33046;52.270;6.832;2023-05-18T01:25:09;9.30;88.50
47310;DHT22;33046;52.270;6.832;2023-05-18T01:27:21;9.30;88.60
47310;DHT22;33046;52.270;6.832;2023-05-18T01:29:28;9.30;88.80
47310;DHT22;33046;52.270;6.832;2023-05-18T01:31:36;9.30;88.80
47310;DHT22;33046;52.270;6.832;2023-05-18T01:33:43;9.20;88.80
47310;DHT22;33046;52.270;6.832;2023-05-18T01:35:50;9.20;89.00
47310;DHT22;33046;52.270;6.832;2023-05-18T01:37:57;9.20;89.10
47310;DHT22;33046;52.270;6.832;2023-05-18T01:40:07;9.20;88.90
47310;DHT22;33046;52.270;6.832;2023-05-18T01:42:18;9.10;89.10
47310;DHT22;33046;52.270;6.832;2023-05-18T01:44:31;9.10;88.80
47310;DHT22;33046;52.270;6.832;2023-05-18T01:46:44;9.10;89.30
47310;DHT22;33046;52.270;6.832;2023-05-18T01:48:56;9.10;89.50
47310;DHT22;33046;52.270;6.832;2023-05-18T01:51:05;9.10;89.80
47310;DHT22;33046;52.270;6.832;2023-05-18T01:53:21;9.10;89.90
47310;DHT22;33046;52.270;6.832;2023-05-18T01:55:29;9.00;89.80
47310;DHT22;33046;52.270;6.832;2023-05-18T01:57:40;9.00;90.00
47310;DHT22;33046;52.270;6.832;2023-05-18T01:59:50;9.00;90.10
47310;DHT22;33046;52.270;6.832;2023-05-18T02:01:58;8.90;90.10
47310;DHT22;33046;52.270;6.832;2023-05-18T02:04:07;8.90;90.10
47310;DHT22;33046;52.270;6.832;2023-05-18T02:06:14;8.90;90.10
47310;DHT22;33046;52.270;6.832;2023-05-18T02:08:21;8.90;90.20
47310;DHT22;33046;52.270;6.832;2023-05-18T02:10:27;8.90;90.30
47310;DHT22;33046;52.270;6.832;2023-05-18T02:12:34;8.90;90.40
47310;DHT22;33046;52.270;6.832;2023-05-18T02:14:41;8.80;90.30
47310;DHT22;33046;52.270;6.832;2023-05-18T02:16:49;8.80;90.30
47310;DHT22;33046;52.270;6.832;2023-05-18T02:18:56;8.80;90.50
47310;DHT22;33046;52.270;6.832;2023-05-18T02:21:03;8.80;90.40
47310;DHT22;33046;52.270;6.832;2023-05-18T02:23:10;8.80;90.60
47310;DHT22;33046;52.270;6.832;2023-05-18T02:25:17;8.70;90.60
47310;DHT22;33046;52.270;6.832;2023-05-18T02:27:24;8.70;90.70
47310;DHT22;33046;52.270;6.832;2023-05-18T02:29:31;8.70;90.70
47310;DHT22;33046;52.270;6.832;2023-05-18T02:31:38;8.70;90.80
47310;DHT22;33046;52.270;6.832;2023-05-18T02:33:46;8.70;90.80
47310;DHT22;33046;52.270;6.832;2023-05-18T02:35:53;8.70;90.90
47310;DHT22;33046;52.270;6.832;2023-05-18T02:38:00;8.70;90.50
47310;DHT22;33046;52.270;6.832;2023-05-18T02:40:09;8.60;90.20
47310;DHT22;33046;52.270;6.832;2023-05-18T02:42:16;8.60;90.10
47310;DHT22;33046;52.270;6.832;2023-05-18T02:44:23;8.60;90.10
47310;DHT22;33046;52.270;6.832;2023-05-18T02:46:30;8.60;90.30
47310;DHT22;33046;52.270;6.832;2023-05-18T02:48:37;8.60;90.60
47310;DHT22;33046;52.270;6.832;2023-05-18T02:50:47;8.50;90.50
47310;DHT22;33046;52.270;6.832;2023-05-18T02:52:54;8.50;90.30
47310;DHT22;33046;52.270;6.832;2023-05-18T02:55:01;8.50;90.40
47310;DHT22;33046;52.270;6.832;2023-05-18T02:57:28;8.50;90.50
47310;DHT22;33046;52.270;6.832;2023-05-18T02:59:40;8.50;90.50
47310;DHT22;33046;52.270;6.832;2023-05-18T03:01:47;8.40;90.80
47310;DHT22;33046;52.270;6.832;2023-05-18T03:03:54;8.40;91.00
47310;DHT22;33046;52.270;6.832;2023-05-18T03:06:03;8.40;91.00
47310;DHT22;33046;52.270;6.832;2023-05-18T03:08:10;8.40;91.00
47310;DHT22;33046;52.270;6.832;2023-05-18T03:10:17;8.40;91.00
47310;DHT22;33046;52.270;6.832;2023-05-18T03:12:24;8.30;91.10
47310;DHT22;33046;52.270;6.832;2023-05-18T03:14:31;8.30;91.10
47310;DHT22;33046;52.270;6.832;2023-05-18T03:16:37;8.30;91.00
47310;DHT22;33046;52.270;6.832;2023-05-18T03:18:49;8.30;91.10
47310;DHT22;33046;52.270;6.832;2023-05-18T03:20:56;8.30;91.30
47310;DHT22;33046;52.270;6.832;2023-05-18T03:23:05;8.30;91.40
47310;DHT22;33046;52.270;6.832;2023-05-18T03:25:13;8.20;91.50
47310;DHT22;33046;52.270;6.832;2023-05-18T03:27:20;8.20;91.50
47310;DHT22;33046;52.270;6.832;2023-05-18T03:29:26;8.20;91.60
47310;DHT22;33046;52.270;6.832;2023-05-18T03:31:34;8.20;91.80
47310;DHT22;33046;52.270;6.832;2023-05-18T03:33:42;8.10;91.70
47310;DHT22;33046;52.270;6.832;2023-05-18T03:35:49;8.10;91.70
47310;DHT22;33046;52.270;6.832;2023-05-18T03:37:55;8.10;91.30
47310;DHT22;33046;52.270;6.832;2023-05-18T03:40:13;8.10;90.90
47310;DHT22;33046;52.270;6.832;2023-05-18T03:42:21;8.10;91.00
47310;DHT22;33046;52.270;6.832;2023-05-18T03:44:28;8.10;91.20
47310;DHT22;33046;52.270;6.832;2023-05-18T03:46:35;8.00;91.50
47310;DHT22;33046;52.270;6.832;2023-05-18T03:48:42;8.00;91.60
47310;DHT22;33046;52.270;6.832;2023-05-18T03:50:49;8.00;91.70
47310;DHT22;33046;52.270;6.832;2023-05-18T03:52:57;8.10;91.50
47310;DHT22;33046;52.270;6.832;2023-05-18T03:55:05;8.00;91.60
47310;DHT22;33046;52.270;6.832;2023-05-18T03:57:13;8.00;91.50
47310;DHT22;33046;52.270;6.832;2023-05-18T03:59:20;8.00;91.40
47310;DHT22;33046;52.270;6.832;2023-05-18T04:01:30;8.00;91.80
47310;DHT22;33046;52.270;6.832;2023-05-18T04:03:37;8.00;92.00
47310;DHT22;33046;52.270;6.832;2023-05-18T04:05:44;8.00;92.00
47310;DHT22;33046;52.270;6.832;2023-05-18T04:07:50;8.00;92.10
47310;DHT22;33046;52.270;6.832;2023-05-18T04:09:57;8.00;92.00
47310;DHT22;33046;52.270;6.832;2023-05-18T04:12:05;8.00;92.20
47310;DHT22;33046;52.270;6.832;2023-05-18T04:14:13;8.00;92.30
47310;DHT22;33046;52.270;6.832;2023-05-18T04:16:20;8.00;92.40
47310;DHT22;33046;52.270;6.832;2023-05-18T04:18:27;8.00;92.50
47310;DHT22;33046;52.270;6.832;2023-05-18T04:20:34;8.00;92.50
47310;DHT22;33046;52.270;6.832;2023-05-18T04:22:42;8.00;92.60
47310;DHT22;33046;52.270;6.832;2023-05-18T04:24:49;8.10;92.60
47310;DHT22;33046;52.270;6.832;2023-05-18T04:26:55;8.00;92.80
47310;DHT22;33046;52.270;6.832;2023-05-18T04:29:02;8.10;92.90
47310;DHT22;33046;52.270;6.832;2023-05-18T04:31:11;8.10;92.90
47310;DHT22;33046;52.270;6.832;2023-05-18T04:33:17;8.10;92.90
47310;DHT22;33046;52.270;6.832;2023-05-18T04:35:24;8.10;92.90
47310;DHT22;33046;52.270;6.832;2023-05-18T04:37:31;8.10;93.00
47310;DHT22;33046;52.270;6.832;2023-05-18T04:39:39;8.10;93.10
47310;DHT22;33046;52.270;6.832;2023-05-18T04:41:49;8.10;93.20
47310;DHT22;33046;52.270;6.832;2023-05-18T04:43:56;8.20;93.20
47310;DHT22;33046;52.270;6.832;2023-05-18T04:46:04;8.10;93.30
47310;DHT22;33046;52.270;6.832;2023-05-18T04:48:13;8.10;93.40
47310;DHT22;33046;52.270;6.832;2023-05-18T04:50:21;8.20;93.50
47310;DHT22;33046;52.270;6.832;2023-05-18T04:52:28;8.20;93.50
47310;DHT22;33046;52.270;6.832;2023-05-18T04:54:35;8.30;93.60
47310;DHT22;33046;52.270;6.832;2023-05-18T04:56:41;8.30;93.60
47310;DHT22;33046;52.270;6.832;2023-05-18T04:58:48;8.30;93.70
47310;DHT22;33046;52.270;6.832;2023-05-18T05:00:56;8.40;93.80
47310;DHT22;33046;52.270;6.832;2023-05-18T05:03:03;8.30;93.90
47310;DHT22;33046;52.270;6.832;2023-05-18T05:05:12;8.40;94.10
47310;DHT22;33046;52.270;6.832;2023-05-18T05:07:18;8.50;93.80
47310;DHT22;33046;52.270;6.832;2023-05-18T05:09:25;8.50;93.60
47310;DHT22;33046;52.270;6.832;2023-05-18T05:11:32;8.50;93.80
47310;DHT22;33046;52.270;6.832;2023-05-18T05:13:39;8.60;94.00
47310;DHT22;33046;52.270;6.832;2023-05-18T05:15:46;8.60;93.90
47310;DHT22;33046;52.270;6.832;2023-05-18T05:17:53;8.70;94.00
47310;DHT22;33046;52.270;6.832;2023-05-18T05:20:00;8.70;94.10
47310;DHT22;33046;52.270;6.832;2023-05-18T05:22:08;8.70;93.90
47310;DHT22;33046;52.270;6.832;2023-05-18T05:24:15;8.80;93.80
47310;DHT22;33046;52.270;6.832;2023-05-18T05:26:22;8.90;93.40
47310;DHT22;33046;52.270;6.832;2023-05-18T05:28:30;8.90;93.20
47310;DHT22;33046;52.270;6.832;2023-05-18T05:30:37;9.00;93.10
47310;DHT22;33046;52.270;6.832;2023-05-18T05:32:43;9.00;93.10
47310;DHT22;33046;52.270;6.832;2023-05-18T05:34:50;9.10;93.10
47310;DHT22;33046;52.270;6.832;2023-05-18T05:36:59;9.10;92.90
47310;DHT22;33046;52.270;6.832;2023-05-18T05:39:07;9.30;93.00
47310;DHT22;33046;52.270;6.832;2023-05-18T05:41:14;9.40;92.80
47310;DHT22;33046;52.270;6.832;2023-05-18T05:43:21;9.60;92.70
47310;DHT22;33046;52.270;6.832;2023-05-18T05:45:28;9.70;92.50
47310;DHT22;33046;52.270;6.832;2023-05-18T05:47:38;9.90;92.30
47310;DHT22;33046;52.270;6.832;2023-05-18T05:49:45;10.10;92.10
47310;DHT22;33046;52.270;6.832;2023-05-18T05:51:52;10.30;91.70
47310;DHT22;33046;52.270;6.832;2023-05-18T05:53:59;10.50;90.90
47310;DHT22;33046;52.270;6.832;2023-05-18T05:56:07;10.70;90.70
47310;DHT22;33046;52.270;6.832;2023-05-18T05:58:17;10.90;90.30
47310;DHT22;33046;52.270;6.832;2023-05-18T06:00:29;11.20;90.10
47310;DHT22;33046;52.270;6.832;2023-05-18T06:02:40;11.30;90.10
47310;DHT22;33046;52.270;6.832;2023-05-18T06:04:46;11.50;88.70
47310;DHT22;33046;52.270;6.832;2023-05-18T06:06:53;11.80;87.90
47310;DHT22;33046;52.270;6.832;2023-05-18T06:09:01;12.00;87.20
47310;DHT22;33046;52.270;6.832;2023-05-18T06:11:10;12.10;86.70
47310;DHT22;33046;52.270;6.832;2023-05-18T06:13:18;12.30;86.40
47310;DHT22;33046;52.270;6.832;2023-05-18T06:15:28;12.40;84.80
47310;DHT22;33046;52.270;6.832;2023-05-18T06:17:35;12.60;84.50
47310;DHT22;33046;52.270;6.832;2023-05-18T06:19:43;12.80;83.30
47310;DHT22;33046;52.270;6.832;2023-05-18T06:21:49;13.00;83.80
47310;DHT22;33046;52.270;6.832;2023-05-18T06:23:56;13.10;82.60
47310;DHT22;33046;52.270;6.832;2023-05-18T06:26:23;13.10;80.30
47310;DHT22;33046;52.270;6.832;2023-05-18T06:28:42;13.10;80.10
47310;DHT22;33046;52.270;6.832;2023-05-18T06:31:00;13.20;79.20
47310;DHT22;33046;52.270;6.832;2023-05-18T06:33:16;13.30;79.00
47310;DHT22;33046;52.270;6.832;2023-05-18T06:35:23;13.60;78.70
47310;DHT22;33046;52.270;6.832;2023-05-18T06:37:30;13.80;78.80
47310;DHT22;33046;52.270;6.832;2023-05-18T06:39:38;14.00;79.40
47310;DHT22;33046;52.270;6.832;2023-05-18T06:41:46;14.20;75.80
47310;DHT22;33046;52.270;6.832;2023-05-18T06:44:01;14.40;76.50
47310;DHT22;33046;52.270;6.832;2023-05-18T06:46:18;14.50;75.70
47310;DHT22;33046;52.270;6.832;2023-05-18T06:48:27;14.70;74.40
47310;DHT22;33046;52.270;6.832;2023-05-18T06:50:33;14.70;74.40
47310;DHT22;33046;52.270;6.832;2023-05-18T06:52:41;14.90;72.90
47310;DHT22;33046;52.270;6.832;2023-05-18T06:54:48;14.80;72.50
47310;DHT22;33046;52.270;6.832;2023-05-18T06:56:56;14.80;72.30
47310;DHT22;33046;52.270;6.832;2023-05-18T06:59:03;14.80;72.60
47310;DHT22;33046;52.270;6.832;2023-05-18T07:01:10;14.80;72.50
47310;DHT22;33046;52.270;6.832;2023-05-18T07:03:17;14.80;71.60
47310;DHT22;33046;52.270;6.832;2023-05-18T07:05:24;14.90;71.60
47310;DHT22;33046;52.270;6.832;2023-05-18T07:07:31;14.80;72.20
47310;DHT22;33046;52.270;6.832;2023-05-18T07:09:38;14.80;72.00
47310;DHT22;33046;52.270;6.832;2023-05-18T07:11:44;15.00;71.70
47310;DHT22;33046;52.270;6.832;2023-05-18T07:13:53;15.10;71.30
47310;DHT22;33046;52.270;6.832;2023-05-18T07:15:59;15.20;71.70
47310;DHT22;33046;52.270;6.832;2023-05-18T07:18:06;15.10;71.50
47310;DHT22;33046;52.270;6.832;2023-05-18T07:20:13;15.20;70.20
47310;DHT22;33046;52.270;6.832;2023-05-18T07:22:20;15.10;71.30
47310;DHT22;33046;52.270;6.832;2023-05-18T07:24:27;15.10;70.70
47310;DHT22;33046;52.270;6.832;2023-05-18T07:26:33;15.10;71.10
47310;DHT22;33046;52.270;6.832;2023-05-18T07:28:40;15.20;70.60
47310;DHT22;33046;52.270;6.832;2023-05-18T07:30:48;15.10;71.00
47310;DHT22;33046;52.270;6.832;2023-05-18T07:32:55;15.20;70.50
47310;DHT22;33046;52.270;6.832;2023-05-18T07:35:02;15.10;70.70
47310;DHT22;33046;52.270;6.832;2023-05-18T07:37:09;15.10;70.20
47310;DHT22;33046;52.270;6.832;2023-05-18T07:39:16;15.00;71.00
47310;DHT22;33046;52.270;6.832;2023-05-18T07:41:24;15.00;69.50
47310;DHT22;33046;52.270;6.832;2023-05-18T07:43:31;14.90;69.90
47310;DHT22;33046;52.270;6.832;2023-05-18T07:45:38;14.90;67.80
47310;DHT22;33046;52.270;6.832;2023-05-18T07:47:46;14.80;67.40
47310;DHT22;33046;52.270;6.832;2023-05-18T07:49:53;14.80;68.80
47310;DHT22;33046;52.270;6.832;2023-05-18T07:51:59;14.70;69.00
47310;DHT22;33046;52.270;6.832;2023-05-18T07:54:06;14.70;69.50
47310;DHT22;33046;52.270;6.832;2023-05-18T07:56:13;14.70;69.20
47310;DHT22;33046;52.270;6.832;2023-05-18T07:58:20;14.60;68.80
47310;DHT22;33046;52.270;6.832;2023-05-18T08:00:27;14.60;69.10
47310;DHT22;33046;52.270;6.832;2023-05-18T08:02:34;14.60;69.40
47310;DHT22;33046;52.270;6.832;2023-05-18T08:04:42;14.60;70.00
47310;DHT22;33046;52.270;6.832;2023-05-18T08:06:49;14.70;70.60
47310;DHT22;33046;52.270;6.832;2023-05-18T08:08:55;14.70;67.30
47310;DHT22;33046;52.270;6.832;2023-05-18T08:11:03;14.60;67.90
47310;DHT22;33046;52.270;6.832;2023-05-18T08:13:10;14.60;68.90
47310;DHT22;33046;52.270;6.832;2023-05-18T08:15:16;14.70;68.40
47310;DHT22;33046;52.270;6.832;2023-05-18T08:17:23;14.80;68.80
47310;DHT22;33046;52.270;6.832;2023-05-18T08:19:30;15.00;69.90
47310;DHT22;33046;52.270;6.832;2023-05-18T08:21:38;15.00;69.20
47310;DHT22;33046;52.270;6.832;2023-05-18T08:23:45;15.00;69.10
47310;DHT22;33046;52.270;6.832;2023-05-18T08:25:52;15.00;68.80
47310;DHT22;33046;52.270;6.832;2023-05-18T08:27:59;15.00;68.70
47310;DHT22;33046;52.270;6.832;2023-05-18T08:30:07;15.10;68.20
47310;DHT22;33046;52.270;6.832;2023-05-18T08:32:14;15.10;66.80
47310;DHT22;33046;52.270;6.832;2023-05-18T08:34:20;15.20;68.00
47310;DHT22;33046;52.270;6.832;2023-05-18T08:36:27;15.30;68.60
47310;DHT22;33046;52.270;6.832;2023-05-18T08:38:35;15.30;67.60
47310;DHT22;33046;52.270;6.832;2023-05-18T08:40:45;15.30;66.80
47310;DHT22;33046;52.270;6.832;2023-05-18T08:42:58;15.30;67.10
47310;DHT22;33046;52.270;6.832;2023-05-18T08:45:10;15.60;68.20
47310;DHT22;33046;52.270;6.832;2023-05-18T08:47:18;15.70;67.40
47310;DHT22;33046;52.270;6.832;2023-05-18T08:49:26;15.70;67.90
47310;DHT22;33046;52.270;6.832;2023-05-18T08:51:35;15.70;66.90
47310;DHT22;33046;52.270;6.832;2023-05-18T08:53:44;15.70;66.50
47310;DHT22;33046;52.270;6.832;2023-05-18T08:55:52;15.80;65.70
47310;DHT22;33046;52.270;6.832;2023-05-18T08:58:01;15.80;66.30
47310;DHT22;33046;52.270;6.832;2023-05-18T09:00:09;15.90;66.70
47310;DHT22;33046;52.270;6.832;2023-05-18T09:02:17;15.90;65.60
47310;DHT22;33046;52.270;6.832;2023-05-18T09:04:25;15.80;65.20
47310;DHT22;33046;52.270;6.832;2023-05-18T09:06:32;15.90;64.80
47310;DHT22;33046;52.270;6.832;2023-05-18T09:08:40;15.80;64.30
47310;DHT22;33046;52.270;6.832;2023-05-18T09:10:49;15.70;64.50
47310;DHT22;33046;52.270;6.832;2023-05-18T09:12:58;15.70;64.00
47310;DHT22;33046;52.270;6.832;2023-05-18T09:15:07;15.60;63.90
47310;DHT22;33046;52.270;6.832;2023-05-18T09:17:14;15.60;64.60
47310;DHT22;33046;52.270;6.832;2023-05-18T09:19:21;15.60;64.80
47310;DHT22;33046;52.270;6.832;2023-05-18T09:21:29;15.60;65.30
47310;DHT22;33046;52.270;6.832;2023-05-18T09:23:38;15.70;65.60
47310;DHT22;33046;52.270;6.832;2023-05-18T09:25:46;15.70;63.70
47310;DHT22;33046;52.270;6.832;2023-05-18T09:27:54;15.70;63.80
47310;DHT22;33046;52.270;6.832;2023-05-18T09:30:01;15.70;62.90
47310;DHT22;33046;52.270;6.832;2023-05-18T09:32:10;15.60;63.90
47310;DHT22;33046;52.270;6.832;2023-05-18T09:34:16;15.60;63.70
47310;DHT22;33046;52.270;6.832;2023-05-18T09:36:24;15.60;64.50
47310;DHT22;33046;52.270;6.832;2023-05-18T09:38:35;15.60;63.80
47310;DHT22;33046;52.270;6.832;2023-05-18T09:40:45;15.60;64.50
47310;DHT22;33046;52.270;6.832;2023-05-18T09:42:53;15.50;65.00
47310;DHT22;33046;52.270;6.832;2023-05-18T09:45:00;15.50;65.00
47310;DHT22;33046;52.270;6.832;2023-05-18T09:47:08;15.50;66.00
47310;DHT22;33046;52.270;6.832;2023-05-18T09:49:20;15.60;65.20
47310;DHT22;33046;52.270;6.832;2023-05-18T09:51:28;15.70;65.20
47310;DHT22;33046;52.270;6.832;2023-05-18T09:53:35;15.70;65.80
47310;DHT22;33046;52.270;6.832;2023-05-18T09:55:46;16.00;66.20
47310;DHT22;33046;52.270;6.832;2023-05-18T09:57:55;15.90;63.00
47310;DHT22;33046;52.270;6.832;2023-05-18T10:00:04;15.90;63.70
47310;DHT22;33046;52.270;6.832;2023-05-18T10:02:12;16.10;65.10
47310;DHT22;33046;52.270;6.832;2023-05-18T10:04:19;16.20;65.20
47310;DHT22;33046;52.270;6.832;2023-05-18T10:06:26;16.20;63.90
47310;DHT22;33046;52.270;6.832;2023-05-18T10:08:34;16.20;63.40
47310;DHT22;33046;52.270;6.832;2023-05-18T10:10:43;16.20;65.50
47310;DHT22;33046;52.270;6.832;2023-05-18T10:12:51;16.30;62.00
47310;DHT22;33046;52.270;6.832;2023-05-18T10:14:59;16.30;66.10
47310;DHT22;33046;52.270;6.832;2023-05-18T10:17:06;16.30;65.70
47310;DHT22;33046;52.270;6.832;2023-05-18T10:19:20;16.30;63.60
47310;DHT22;33046;52.270;6.832;2023-05-18T10:21:29;16.20;65.30
47310;DHT22;33046;52.270;6.832;2023-05-18T10:23:36;16.20;63.00
47310;DHT22;33046;52.270;6.832;2023-05-18T10:25:47;16.30;63.30
47310;DHT22;33046;52.270;6.832;2023-05-18T10:27:55;16.30;62.80
47310;DHT22;33046;52.270;6.832;2023-05-18T10:30:05;16.30;63.60
47310;DHT22;33046;52.270;6.832;2023-05-18T10:32:13;16.30;64.40
47310;DHT22;33046;52.270;6.832;2023-05-18T10:34:22;16.40;63.80
47310;DHT22;33046;52.270;6.832;2023-05-18T10:36:30;16.40;63.90
47310;DHT22;33046;52.270;6.832;2023-05-18T10:38:39;16.40;64.80
47310;DHT22;33046;52.270;6.832;2023-05-18T10:40:49;16.50;64.10
47310;DHT22;33046;52.270;6.832;2023-05-18T10:42:57;16.50;62.60
47310;DHT22;33046;52.270;6.832;2023-05-18T10:45:06;16.50;61.20
47310;DHT22;33046;52.270;6.832;2023-05-18T10:47:14;16.50;61.70
47310;DHT22;33046;52.270;6.832;2023-05-18T10:49:24;16.50;61.60
47310;DHT22;33046;52.270;6.832;2023-05-18T10:51:31;16.50;62.80
47310;DHT22;33046;52.270;6.832;2023-05-18T10:53:40;16.50;62.80
47310;DHT22;33046;52.270;6.832;2023-05-18T10:55:48;16.60;64.40
47310;DHT22;33046;52.270;6.832;2023-05-18T10:57:59;16.60;64.20
47310;DHT22;33046;52.270;6.832;2023-05-18T11:00:10;16.50;64.90
47310;DHT22;33046;52.270;6.832;2023-05-18T11:02:18;16.50;61.20
47310;DHT22;33046;52.270;6.832;2023-05-18T11:04:26;16.50;61.80
47310;DHT22;33046;52.270;6.832;2023-05-18T11:06:33;16.60;64.70
47310;DHT22;33046;52.270;6.832;2023-05-18T11:08:46;16.60;65.10
47310;DHT22;33046;52.270;6.832;2023-05-18T11:10:59;16.60;64.50
47310;DHT22;33046;52.270;6.832;2023-05-18T11:13:07;16.60;64.80
47310;DHT22;33046;52.270;6.832;2023-05-18T11:15:15;16.80;63.20
47310;DHT22;33046;52.270;6.832;2023-05-18T11:17:23;16.90;64.20
47310;DHT22;33046;52.270;6.832;2023-05-18T11:19:30;17.00;62.20
47310;DHT22;33046;52.270;6.832;2023-05-18T11:21:51;16.90;61.10
47310;DHT22;33046;52.270;6.832;2023-05-18T11:24:20;17.10;62.50
47310;DHT22;33046;52.270;6.832;2023-05-18T11:26:28;17.10;62.90
47310;DHT22;33046;52.270;6.832;2023-05-18T11:28:41;17.00;62.70
47310;DHT22;33046;52.270;6.832;2023-05-18T11:30:50;17.00;61.80
47310;DHT22;33046;52.270;6.832;2023-05-18T11:33:07;17.10;62.30
47310;DHT22;33046;52.270;6.832;2023-05-18T11:35:22;17.10;63.30
47310;DHT22;33046;52.270;6.832;2023-05-18T11:37:49;17.20;62.00
47310;DHT22;33046;52.270;6.832;2023-05-18T11:39:56;17.30;61.50
47310;DHT22;33046;52.270;6.832;2023-05-18T11:42:06;17.30;62.10
47310;DHT22;33046;52.270;6.832;2023-05-18T11:44:15;17.20;62.70
47310;DHT22;33046;52.270;6.832;2023-05-18T11:46:23;17.30;62.60
47310;DHT22;33046;52.270;6.832;2023-05-18T11:48:32;17.40;62.60
47310;DHT22;33046;52.270;6.832;2023-05-18T11:50:44;17.30;63.20
47310;DHT22;33046;52.270;6.832;2023-05-18T11:52:51;17.30;62.30
47310;DHT22;33046;52.270;6.832;2023-05-18T11:54:59;17.50;62.60
47310;DHT22;33046;52.270;6.832;2023-05-18T11:57:07;17.60;61.70
47310;DHT22;33046;52.270;6.832;2023-05-18T11:59:14;17.50;60.80
47310;DHT22;33046;52.270;6.832;2023-05-18T12:01:22;17.50;62.50
47310;DHT22;33046;52.270;6.832;2023-05-18T12:03:30;17.40;61.40
47310;DHT22;33046;52.270;6.832;2023-05-18T12:05:39;17.40;60.90
47310;DHT22;33046;52.270;6.832;2023-05-18T12:07:51;17.40;60.20
47310;DHT22;33046;52.270;6.832;2023-05-18T12:09:59;17.40;60.50
47310;DHT22;33046;52.270;6.832;2023-05-18T12:12:07;17.50;62.80
47310;DHT22;33046;52.270;6.832;2023-05-18T12:14:14;17.60;64.40
47310;DHT22;33046;52.270;6.832;2023-05-18T12:16:24;17.70;63.60
47310;DHT22;33046;52.270;6.832;2023-05-18T12:18:31;17.80;62.00
47310;DHT22;33046;52.270;6.832;2023-05-18T12:20:39;18.00;61.30
47310;DHT22;33046;52.270;6.832;2023-05-18T12:22:47;17.90;61.00
47310;DHT22;33046;52.270;6.832;2023-05-18T12:24:54;17.90;60.20
47310;DHT22;33046;52.270;6.832;2023-05-18T12:27:01;18.00;61.60
47310;DHT22;33046;52.270;6.832;2023-05-18T12:29:08;18.10;60.70
47310;DHT22;33046;52.270;6.832;2023-05-18T12:31:15;18.00;59.30
47310;DHT22;33046;52.270;6.832;2023-05-18T12:33:23;18.00;59.40
47310;DHT22;33046;52.270;6.832;2023-05-18T12:35:30;17.90;61.10
47310;DHT22;33046;52.270;6.832;2023-05-18T12:37:40;18.10;61.10
47310;DHT22;33046;52.270;6.832;2023-05-18T12:39:51;18.20;58.20
47310;DHT22;33046;52.270;6.832;2023-05-18T12:42:10;18.10;61.10
47310;DHT22;33046;52.270;6.832;2023-05-18T12:44:18;18.30;61.20
47310;DHT22;33046;52.270;6.832;2023-05-18T12:46:24;18.20;59.60
47310;DHT22;33046;52.270;6.832;2023-05-18T12:48:37;18.20;59.90
47310;DHT22;33046;52.270;6.832;2023-05-18T12:50:48;18.20;59.90
47310;DHT22;33046;52.270;6.832;2023-05-18T12:52:55;18.10;59.00
47310;DHT22;33046;52.270;6.832;2023-05-18T12:55:02;18.20;59.00
47310;DHT22;33046;52.270;6.832;2023-05-18T12:57:09;18.20;59.90
47310;DHT22;33046;52.270;6.832;2023-05-18T12:59:17;18.20;59.90
47310;DHT22;33046;52.270;6.832;2023-05-18T13:01:24;18.20;59.10
47310;DHT22;33046;52.270;6.832;2023-05-18T13:03:32;18.20;60.00
47310;DHT22;33046;52.270;6.832;2023-05-18T13:05:40;18.20;61.90
47310;DHT22;33046;52.270;6.832;2023-05-18T13:07:47;18.40;61.40
47310;DHT22;33046;52.270;6.832;2023-05-18T13:09:59;18.40;58.80
47310;DHT22;33046;52.270;6.832;2023-05-18T13:12:07;18.40;58.10
47310;DHT22;33046;52.270;6.832;2023-05-18T13:14:14;18.50;59.30
47310;DHT22;33046;52.270;6.832;2023-05-18T13:16:26;18.60;58.80
47310;DHT22;33046;52.270;6.832;2023-05-18T13:18:33;18.80;58.80
47310;DHT22;33046;52.270;6.832;2023-05-18T13:20:42;18.80;58.90
47310;DHT22;33046;52.270;6.832;2023-05-18T13:22:49;18.60;56.90
47310;DHT22;33046;52.270;6.832;2023-05-18T13:24:56;18.50;58.10
47310;DHT22;33046;52.270;6.832;2023-05-18T13:27:03;18.50;57.60
47310;DHT22;33046;52.270;6.832;2023-05-18T13:29:10;18.60;58.80
47310;DHT22;33046;52.270;6.832;2023-05-18T13:31:17;18.60;58.80
47310;DHT22;33046;52.270;6.832;2023-05-18T13:33:23;18.70;59.10
47310;DHT22;33046;52.270;6.832;2023-05-18T13:35:30;18.70;59.40
47310;DHT22;33046;52.270;6.832;2023-05-18T13:37:39;18.70;59.10